Auburndale, Florida
Current Conditions -  °F | °C
As of 12:53 PM on Wednesday 26 Nov 2014 (Local Time) from KGIF Reporting Station
Broken Clouds Broken Clouds  
Wind Chill: 54°   Ceiling: 12000
Heat Index: 54°   Visibility: 10mi
Dew Point: 50°   Wind: 9mph
Humidity: 86%   Direction: 310°NW
Pressure: 30.15"   Gusts: NA
Location:  28.06°N, 81.78°W
Report Text: KGIF 261753Z AUTO 31008KT 10SM FEW065 BKN120 12/10 A3015 RMK AO2 SLP207 60008 T01220100 10128 20117 58004
Loading
Personal Weather Stations






























Interactive Weather Map New forecast layout! Learn more

10-Day Weather Forecast

Advertisements
Track Severe Weather on mobile